AFL850 LTFM-LHBP
Flight info
| Callsign | AFL850 |
|---|---|
| Flight time | 1h 27m |
| Altitude | 34000 |
| Route | TUDBU1D/35L TUDBU Q26 ETUBA DCT DEGET DCT KEZAL |
| Aircraft | A321/M-SDE3FGHIRWY/LB1 |
Departure
| Time | 2026-05-05 19:04 |
|---|---|
| Airport | İstanbul Airport (LTFM) |
Arrival
| Time | 2026-05-05 20:31 |
|---|---|
| Airport | Budapest Liszt Ferenc International Airport (LHBP) |
| Time | Latitude | Longitude | Altitude | Speed | Heading |
|---|---|---|---|---|---|
| 2026-05-05 18:38 | 41.26488 | 28.73766 | 314 ft | 0 kts | 252° |
| 2026-05-05 18:53 | 41.26489 | 28.73769 | 313 ft | 2 kts | 251° |
| 2026-05-05 18:53 | 41.26495 | 28.73790 | 312 ft | 2 kts | 244° |
| 2026-05-05 18:54 | 41.26503 | 28.73808 | 312 ft | 2 kts | 220° |
| 2026-05-05 18:54 | 41.26514 | 28.73825 | 313 ft | 2 kts | 258° |
| 2026-05-05 18:54 | 41.26515 | 28.73847 | 312 ft | 2 kts | 277° |
| 2026-05-05 18:54 | 41.26513 | 28.73869 | 311 ft | 2 kts | 305° |
| 2026-05-05 18:55 | 41.26502 | 28.73885 | 313 ft | 2 kts | 329° |
| 2026-05-05 18:55 | 41.26488 | 28.73897 | 311 ft | 2 kts | 337° |
| 2026-05-05 18:55 | 41.26481 | 28.73901 | 313 ft | 0 kts | 343° |
| 2026-05-05 18:58 | 41.26514 | 28.73887 | 312 ft | 9 kts | 343° |
| 2026-05-05 18:58 | 41.26599 | 28.73875 | 313 ft | 16 kts | 359° |
| 2026-05-05 18:58 | 41.26732 | 28.73873 | 313 ft | 21 kts | 359° |
| 2026-05-05 18:59 | 41.26885 | 28.73870 | 313 ft | 23 kts | 359° |
| 2026-05-05 18:59 | 41.27021 | 28.73858 | 310 ft | 14 kts | 332° |
| 2026-05-05 18:59 | 41.27045 | 28.73722 | 311 ft | 18 kts | 268° |
| 2026-05-05 18:59 | 41.27044 | 28.73532 | 311 ft | 23 kts | 268° |
| 2026-05-05 19:00 | 41.27042 | 28.73295 | 311 ft | 28 kts | 269° |
| 2026-05-05 19:00 | 41.27035 | 28.73114 | 307 ft | 9 kts | 276° |
| 2026-05-05 19:00 | 41.27027 | 28.73016 | 311 ft | 11 kts | 235° |
| 2026-05-05 19:00 | 41.26944 | 28.72988 | 311 ft | 14 kts | 181° |
| 2026-05-05 19:01 | 41.26831 | 28.72989 | 312 ft | 18 kts | 180° |
| 2026-05-05 19:01 | 41.26725 | 28.72949 | 314 ft | 11 kts | 237° |
| 2026-05-05 19:01 | 41.26724 | 28.72944 | 314 ft | 0 kts | 244° |
| 2026-05-05 19:01 | 41.26719 | 28.72927 | 315 ft | 8 kts | 252° |
| 2026-05-05 19:02 | 41.26716 | 28.72797 | 324 ft | 18 kts | 269° |
| 2026-05-05 19:02 | 41.26714 | 28.72653 | 323 ft | 0 kts | 269° |
| 2026-05-05 19:02 | 41.26714 | 28.72648 | 323 ft | 1 kts | 269° |
| 2026-05-05 19:02 | 41.26714 | 28.72639 | 323 ft | 1 kts | 269° |
| 2026-05-05 19:03 | 41.26714 | 28.72615 | 324 ft | 8 kts | 269° |
| 2026-05-05 19:03 | 41.26753 | 28.72521 | 324 ft | 16 kts | 351° |
| 2026-05-05 19:03 | 41.26792 | 28.72515 | 324 ft | 0 kts | 356° |
| 2026-05-05 19:03 | 41.26804 | 28.72514 | 324 ft | 11 kts | 356° |
| 2026-05-05 19:04 | 41.27207 | 28.72506 | 318 ft | 102 kts | 359° |
| 2026-05-05 19:04 | 41.28168 | 28.72491 | 311 ft | 171 kts | 359° |
| 2026-05-05 19:04 | 41.29459 | 28.72476 | 843 ft | 188 kts | 359° |
| 2026-05-05 19:04 | 41.30791 | 28.72457 | 1602 ft | 198 kts | 360° |
| 2026-05-05 19:05 | 41.32228 | 28.72462 | 1740 ft | 221 kts | 0° |
| 2026-05-05 19:05 | 41.33852 | 28.72479 | 1991 ft | 246 kts | 0° |
| 2026-05-05 19:05 | 41.35642 | 28.72500 | 2283 ft | 269 kts | 0° |
| 2026-05-05 19:05 | 41.37558 | 28.72501 | 2853 ft | 278 kts | 356° |
| 2026-05-05 19:06 | 41.39409 | 28.71780 | 3641 ft | 281 kts | 333° |
| 2026-05-05 19:06 | 41.41133 | 28.70555 | 4460 ft | 281 kts | 335° |
| 2026-05-05 19:06 | 41.42897 | 28.69411 | 4942 ft | 281 kts | 336° |
| 2026-05-05 19:06 | 41.44681 | 28.68305 | 5560 ft | 284 kts | 337° |
| 2026-05-05 19:07 | 41.46478 | 28.67203 | 6333 ft | 285 kts | 337° |
| 2026-05-05 19:07 | 41.48287 | 28.66084 | 7051 ft | 287 kts | 337° |
| 2026-05-05 19:07 | 41.50105 | 28.64944 | 7716 ft | 290 kts | 336° |
| 2026-05-05 19:07 | 41.51932 | 28.63785 | 8384 ft | 293 kts | 336° |
| 2026-05-05 19:08 | 41.53781 | 28.62602 | 9042 ft | 296 kts | 336° |
| 2026-05-05 19:08 | 41.55618 | 28.61426 | 9693 ft | 299 kts | 336° |
| 2026-05-05 19:08 | 41.57444 | 28.60070 | 10281 ft | 304 kts | 326° |
| 2026-05-05 19:08 | 41.58986 | 28.58088 | 10820 ft | 311 kts | 315° |
| 2026-05-05 19:09 | 41.60447 | 28.55935 | 11403 ft | 314 kts | 316° |
| 2026-05-05 19:09 | 41.61926 | 28.53763 | 11985 ft | 317 kts | 316° |
| 2026-05-05 19:09 | 41.63418 | 28.51576 | 12559 ft | 320 kts | 316° |
| 2026-05-05 19:09 | 41.64931 | 28.49361 | 13131 ft | 324 kts | 316° |
| 2026-05-05 19:10 | 41.66432 | 28.47097 | 13700 ft | 329 kts | 311° |
| 2026-05-05 19:10 | 41.67678 | 28.44489 | 14224 ft | 337 kts | 300° |
| 2026-05-05 19:10 | 41.68624 | 28.41646 | 14704 ft | 341 kts | 297° |
| 2026-05-05 19:10 | 41.69573 | 28.38727 | 15224 ft | 344 kts | 297° |
| 2026-05-05 19:11 | 41.70535 | 28.35783 | 15727 ft | 347 kts | 297° |
| 2026-05-05 19:11 | 41.71507 | 28.32814 | 16243 ft | 349 kts | 297° |
| 2026-05-05 19:11 | 41.72485 | 28.29827 | 16744 ft | 352 kts | 297° |
| 2026-05-05 19:11 | 41.73472 | 28.26810 | 17249 ft | 355 kts | 297° |
| 2026-05-05 19:12 | 41.74462 | 28.23772 | 17755 ft | 357 kts | 296° |
| 2026-05-05 19:12 | 41.75457 | 28.20710 | 18238 ft | 360 kts | 296° |
| 2026-05-05 19:12 | 41.76445 | 28.17661 | 18671 ft | 363 kts | 296° |
| 2026-05-05 19:12 | 41.77453 | 28.14553 | 19090 ft | 365 kts | 296° |
| 2026-05-05 19:13 | 41.78467 | 28.11421 | 19505 ft | 368 kts | 296° |
| 2026-05-05 19:13 | 41.79597 | 28.08344 | 19903 ft | 368 kts | 304° |
| 2026-05-05 19:13 | 41.81063 | 28.05543 | 20284 ft | 368 kts | 310° |
| 2026-05-05 19:13 | 41.82617 | 28.02798 | 20692 ft | 371 kts | 309° |
| 2026-05-05 19:14 | 41.84178 | 28.00034 | 21089 ft | 373 kts | 309° |
| 2026-05-05 19:14 | 41.85748 | 27.97244 | 21477 ft | 375 kts | 309° |
| 2026-05-05 19:14 | 41.87300 | 27.94479 | 21851 ft | 377 kts | 309° |
| 2026-05-05 19:14 | 41.88882 | 27.91657 | 22230 ft | 379 kts | 309° |
| 2026-05-05 19:15 | 41.90470 | 27.88819 | 22580 ft | 382 kts | 309° |
| 2026-05-05 19:15 | 41.92068 | 27.85961 | 22934 ft | 384 kts | 309° |
| 2026-05-05 19:15 | 41.93671 | 27.83085 | 23281 ft | 385 kts | 309° |
| 2026-05-05 19:15 | 41.95282 | 27.80193 | 23618 ft | 387 kts | 309° |
| 2026-05-05 19:16 | 41.96950 | 27.77348 | 23881 ft | 388 kts | 314° |
| 2026-05-05 19:16 | 41.98808 | 27.74780 | 24145 ft | 389 kts | 316° |
| 2026-05-05 19:16 | 42.00713 | 27.72189 | 24423 ft | 391 kts | 316° |
| 2026-05-05 19:16 | 42.02626 | 27.69581 | 24715 ft | 392 kts | 316° |
| 2026-05-05 19:17 | 42.04540 | 27.66963 | 24982 ft | 394 kts | 316° |
| 2026-05-05 19:17 | 42.06466 | 27.64326 | 25251 ft | 396 kts | 316° |
| 2026-05-05 19:17 | 42.08400 | 27.61673 | 25525 ft | 398 kts | 316° |
| 2026-05-05 19:17 | 42.10340 | 27.59005 | 25806 ft | 400 kts | 316° |
| 2026-05-05 19:18 | 42.12288 | 27.56322 | 26081 ft | 401 kts | 316° |
| 2026-05-05 19:18 | 42.14241 | 27.53627 | 26351 ft | 403 kts | 316° |
| 2026-05-05 19:18 | 42.16209 | 27.50913 | 26610 ft | 405 kts | 316° |
| 2026-05-05 19:18 | 42.18158 | 27.48224 | 26885 ft | 407 kts | 316° |
| 2026-05-05 19:19 | 42.20143 | 27.45486 | 27152 ft | 410 kts | 316° |
| 2026-05-05 19:19 | 42.22149 | 27.42720 | 27294 ft | 415 kts | 316° |
| 2026-05-05 19:19 | 42.24179 | 27.39920 | 27424 ft | 420 kts | 315° |
| 2026-05-05 19:19 | 42.26236 | 27.37078 | 27555 ft | 425 kts | 315° |
| 2026-05-05 19:20 | 42.28316 | 27.34198 | 27678 ft | 431 kts | 315° |
| 2026-05-05 19:20 | 42.30415 | 27.31287 | 27824 ft | 435 kts | 315° |
| 2026-05-05 19:20 | 42.32538 | 27.28336 | 27959 ft | 440 kts | 315° |
| 2026-05-05 19:20 | 42.34677 | 27.25359 | 28159 ft | 443 kts | 315° |
| 2026-05-05 19:21 | 42.36796 | 27.22408 | 28381 ft | 444 kts | 315° |
| 2026-05-05 19:21 | 42.38960 | 27.19399 | 28612 ft | 446 kts | 315° |
| 2026-05-05 19:21 | 42.41123 | 27.16395 | 28815 ft | 447 kts | 315° |
| 2026-05-05 19:21 | 42.43294 | 27.13375 | 29044 ft | 448 kts | 315° |
| 2026-05-05 19:22 | 42.45468 | 27.10345 | 29233 ft | 449 kts | 315° |
| 2026-05-05 19:22 | 42.47646 | 27.07299 | 29424 ft | 451 kts | 315° |
| 2026-05-05 19:22 | 42.49824 | 27.04241 | 29596 ft | 452 kts | 315° |
| 2026-05-05 19:22 | 42.52013 | 27.01167 | 29783 ft | 452 kts | 315° |
| 2026-05-05 19:23 | 42.54192 | 26.98110 | 30034 ft | 451 kts | 315° |
| 2026-05-05 19:23 | 42.56345 | 26.95091 | 30249 ft | 450 kts | 315° |
| 2026-05-05 19:23 | 42.58518 | 26.92041 | 30480 ft | 449 kts | 315° |
| 2026-05-05 19:23 | 42.60679 | 26.89000 | 30713 ft | 447 kts | 315° |
| 2026-05-05 19:24 | 42.62838 | 26.85961 | 30954 ft | 446 kts | 315° |
| 2026-05-05 19:24 | 42.64984 | 26.82936 | 31204 ft | 444 kts | 316° |
| 2026-05-05 19:24 | 42.67125 | 26.79916 | 31433 ft | 443 kts | 316° |
| 2026-05-05 19:24 | 42.69257 | 26.76906 | 31671 ft | 442 kts | 316° |
| 2026-05-05 19:25 | 42.71380 | 26.73901 | 31888 ft | 441 kts | 316° |
| 2026-05-05 19:25 | 42.73503 | 26.70892 | 32110 ft | 440 kts | 316° |
| 2026-05-05 19:25 | 42.75594 | 26.67927 | 32329 ft | 439 kts | 316° |
| 2026-05-05 19:25 | 42.77705 | 26.64929 | 32504 ft | 440 kts | 316° |
| 2026-05-05 19:26 | 42.79825 | 26.61917 | 32629 ft | 441 kts | 316° |
| 2026-05-05 19:26 | 42.81947 | 26.58906 | 32764 ft | 441 kts | 316° |
| 2026-05-05 19:26 | 42.84113 | 26.55934 | 32892 ft | 442 kts | 317° |
| 2026-05-05 19:26 | 42.86318 | 26.53017 | 33027 ft | 442 kts | 318° |
| 2026-05-05 19:27 | 42.88542 | 26.50132 | 33147 ft | 442 kts | 318° |
| 2026-05-05 19:27 | 42.90777 | 26.47243 | 33286 ft | 442 kts | 318° |
| 2026-05-05 19:27 | 42.92974 | 26.44386 | 33416 ft | 443 kts | 318° |
| 2026-05-05 19:27 | 42.95192 | 26.41477 | 33551 ft | 442 kts | 318° |
| 2026-05-05 19:28 | 42.97394 | 26.38562 | 33684 ft | 440 kts | 318° |
| 2026-05-05 19:28 | 42.99583 | 26.35648 | 33819 ft | 440 kts | 317° |
| 2026-05-05 19:28 | 43.01771 | 26.32729 | 33983 ft | 439 kts | 317° |
| 2026-05-05 19:28 | 43.03964 | 26.29809 | 34039 ft | 441 kts | 317° |
| 2026-05-05 19:29 | 43.08346 | 26.23975 | 34029 ft | 443 kts | 317° |
| 2026-05-05 19:29 | 43.12747 | 26.18096 | 34027 ft | 442 kts | 317° |
| 2026-05-05 19:30 | 43.17136 | 26.12216 | 34022 ft | 441 kts | 317° |
| 2026-05-05 19:30 | 43.21519 | 26.06339 | 34026 ft | 440 kts | 317° |
| 2026-05-05 19:31 | 43.25890 | 26.00466 | 34020 ft | 440 kts | 317° |
| 2026-05-05 19:31 | 43.30228 | 25.94623 | 34028 ft | 440 kts | 317° |
| 2026-05-05 19:32 | 43.34594 | 25.88727 | 34027 ft | 440 kts | 317° |
| 2026-05-05 19:32 | 43.38953 | 25.82833 | 34028 ft | 440 kts | 317° |
| 2026-05-05 19:33 | 43.43312 | 25.76929 | 34030 ft | 439 kts | 317° |
| 2026-05-05 19:33 | 43.47639 | 25.71059 | 34025 ft | 439 kts | 317° |
| 2026-05-05 19:34 | 43.51982 | 25.65147 | 34016 ft | 439 kts | 317° |
| 2026-05-05 19:35 | 43.58494 | 25.56256 | 34015 ft | 439 kts | 317° |
| 2026-05-05 19:35 | 43.62834 | 25.50323 | 34014 ft | 439 kts | 317° |
| 2026-05-05 19:36 | 43.67138 | 25.44424 | 34017 ft | 439 kts | 317° |
| 2026-05-05 19:36 | 43.71465 | 25.38478 | 34011 ft | 439 kts | 317° |
| 2026-05-05 19:37 | 43.75789 | 25.32519 | 34012 ft | 439 kts | 317° |
| 2026-05-05 19:37 | 43.80107 | 25.26555 | 34007 ft | 438 kts | 317° |
| 2026-05-05 19:38 | 43.84392 | 25.20629 | 34009 ft | 438 kts | 317° |
| 2026-05-05 19:38 | 43.88698 | 25.14665 | 34007 ft | 438 kts | 317° |
| 2026-05-05 19:39 | 43.93002 | 25.08683 | 34007 ft | 438 kts | 317° |
| 2026-05-05 19:39 | 43.97299 | 25.02703 | 34003 ft | 437 kts | 316° |
| 2026-05-05 19:40 | 44.01562 | 24.96757 | 34002 ft | 437 kts | 316° |
| 2026-05-05 19:40 | 44.05847 | 24.90771 | 33997 ft | 437 kts | 316° |
| 2026-05-05 19:41 | 44.10124 | 24.84768 | 33995 ft | 437 kts | 316° |
| 2026-05-05 19:41 | 44.14402 | 24.78768 | 34001 ft | 437 kts | 316° |
| 2026-05-05 19:42 | 44.18677 | 24.72754 | 34001 ft | 437 kts | 316° |
| 2026-05-05 19:42 | 44.22912 | 24.66778 | 34003 ft | 436 kts | 316° |
| 2026-05-05 19:43 | 44.27171 | 24.60753 | 34007 ft | 436 kts | 316° |
| 2026-05-05 19:43 | 44.31420 | 24.54726 | 34004 ft | 436 kts | 316° |
| 2026-05-05 19:44 | 44.35672 | 24.48694 | 34004 ft | 435 kts | 316° |
| 2026-05-05 19:44 | 44.39886 | 24.42700 | 33998 ft | 435 kts | 316° |
| 2026-05-05 19:45 | 44.44124 | 24.36657 | 33998 ft | 435 kts | 316° |
| 2026-05-05 19:45 | 44.48357 | 24.30605 | 33997 ft | 435 kts | 316° |
| 2026-05-05 19:46 | 44.52593 | 24.24538 | 33993 ft | 435 kts | 316° |
| 2026-05-05 19:46 | 44.56799 | 24.18506 | 34000 ft | 436 kts | 316° |
| 2026-05-05 19:47 | 44.61027 | 24.12419 | 33999 ft | 436 kts | 316° |
| 2026-05-05 19:47 | 44.65253 | 24.06313 | 33993 ft | 436 kts | 315° |
| 2026-05-05 19:48 | 44.69485 | 24.00199 | 33998 ft | 437 kts | 315° |
| 2026-05-05 19:48 | 44.73695 | 23.94107 | 34006 ft | 437 kts | 315° |
| 2026-05-05 19:49 | 44.77932 | 23.87974 | 34004 ft | 437 kts | 315° |
| 2026-05-05 19:49 | 44.82165 | 23.81822 | 34008 ft | 437 kts | 315° |
| 2026-05-05 19:50 | 44.86362 | 23.75691 | 34003 ft | 437 kts | 315° |
| 2026-05-05 19:50 | 44.90573 | 23.69524 | 34003 ft | 437 kts | 315° |
| 2026-05-05 19:51 | 44.94801 | 23.63336 | 34005 ft | 438 kts | 315° |
| 2026-05-05 19:51 | 44.99022 | 23.57142 | 34003 ft | 438 kts | 315° |
| 2026-05-05 19:52 | 45.03250 | 23.50925 | 34006 ft | 439 kts | 315° |
| 2026-05-05 19:52 | 45.07449 | 23.44740 | 34015 ft | 439 kts | 315° |
| 2026-05-05 19:53 | 45.11679 | 23.38479 | 34018 ft | 440 kts | 314° |
| 2026-05-05 19:53 | 45.15910 | 23.32201 | 34021 ft | 441 kts | 314° |
| 2026-05-05 19:54 | 45.20143 | 23.25909 | 34024 ft | 441 kts | 314° |
| 2026-05-05 19:54 | 45.24347 | 23.19657 | 34025 ft | 441 kts | 314° |
| 2026-05-05 19:55 | 45.28585 | 23.13345 | 34032 ft | 442 kts | 314° |
| 2026-05-05 19:55 | 45.32823 | 23.07007 | 34029 ft | 443 kts | 314° |
| 2026-05-05 19:56 | 45.37060 | 23.00658 | 34029 ft | 443 kts | 314° |
| 2026-05-05 19:56 | 45.41273 | 22.94333 | 34026 ft | 443 kts | 314° |
| 2026-05-05 19:57 | 45.45513 | 22.87948 | 34019 ft | 444 kts | 314° |
| 2026-05-05 19:57 | 45.49745 | 22.81553 | 34014 ft | 444 kts | 313° |
| 2026-05-05 19:58 | 45.53985 | 22.75142 | 34010 ft | 444 kts | 313° |
| 2026-05-05 19:58 | 45.58196 | 22.68758 | 34001 ft | 445 kts | 313° |
| 2026-05-05 19:59 | 45.62445 | 22.62313 | 34003 ft | 446 kts | 313° |
| 2026-05-05 19:59 | 45.66693 | 22.55843 | 33997 ft | 447 kts | 313° |
| 2026-05-05 20:00 | 45.70942 | 22.49359 | 33989 ft | 447 kts | 313° |
| 2026-05-05 20:00 | 45.75164 | 22.42898 | 33989 ft | 447 kts | 313° |
| 2026-05-05 20:01 | 45.79405 | 22.36379 | 33983 ft | 447 kts | 313° |
| 2026-05-05 20:01 | 45.83644 | 22.29856 | 33981 ft | 447 kts | 313° |
| 2026-05-05 20:02 | 45.87887 | 22.23324 | 33986 ft | 448 kts | 313° |
| 2026-05-05 20:02 | 45.92108 | 22.16807 | 33977 ft | 448 kts | 312° |
| 2026-05-05 20:03 | 45.96347 | 22.10237 | 33972 ft | 448 kts | 312° |
| 2026-05-05 20:03 | 46.00577 | 22.03655 | 33967 ft | 448 kts | 312° |
| 2026-05-05 20:04 | 46.04812 | 21.97068 | 33965 ft | 448 kts | 312° |
| 2026-05-05 20:04 | 46.09013 | 21.90514 | 33957 ft | 449 kts | 312° |
| 2026-05-05 20:05 | 46.13241 | 21.83893 | 33959 ft | 449 kts | 312° |
| 2026-05-05 20:05 | 46.17472 | 21.77261 | 33957 ft | 449 kts | 312° |
| 2026-05-05 20:06 | 46.21671 | 21.70668 | 33957 ft | 449 kts | 312° |
| 2026-05-05 20:06 | 46.25893 | 21.64019 | 33958 ft | 449 kts | 312° |
| 2026-05-05 20:07 | 46.30109 | 21.57360 | 33953 ft | 449 kts | 312° |
| 2026-05-05 20:07 | 46.34327 | 21.50691 | 33953 ft | 449 kts | 312° |
| 2026-05-05 20:08 | 46.38536 | 21.44011 | 33946 ft | 449 kts | 311° |
| 2026-05-05 20:08 | 46.42711 | 21.37362 | 33951 ft | 449 kts | 311° |
| 2026-05-05 20:09 | 46.46910 | 21.30664 | 33950 ft | 449 kts | 311° |
| 2026-05-05 20:09 | 46.51107 | 21.23962 | 33942 ft | 449 kts | 312° |
| 2026-05-05 20:10 | 46.55381 | 21.17354 | 33940 ft | 449 kts | 313° |
| 2026-05-05 20:10 | 46.59651 | 21.10814 | 33936 ft | 449 kts | 313° |
| 2026-05-05 20:11 | 46.63932 | 21.04216 | 33933 ft | 448 kts | 313° |
| 2026-05-05 20:11 | 46.66061 | 21.00916 | 33756 ft | 444 kts | 313° |
| 2026-05-05 20:11 | 46.68137 | 20.97688 | 32902 ft | 428 kts | 312° |
| 2026-05-05 20:11 | 46.70142 | 20.94563 | 32070 ft | 415 kts | 312° |
| 2026-05-05 20:12 | 46.72087 | 20.91523 | 31187 ft | 405 kts | 312° |
| 2026-05-05 20:12 | 46.73961 | 20.88593 | 30315 ft | 396 kts | 312° |
| 2026-05-05 20:12 | 46.75815 | 20.85688 | 29364 ft | 387 kts | 312° |
| 2026-05-05 20:12 | 46.77643 | 20.82821 | 28763 ft | 381 kts | 312° |
| 2026-05-05 20:13 | 46.79403 | 20.80063 | 28725 ft | 374 kts | 312° |
| 2026-05-05 20:13 | 46.81189 | 20.77263 | 28102 ft | 375 kts | 312° |
| 2026-05-05 20:13 | 46.82970 | 20.74473 | 27605 ft | 376 kts | 312° |
| 2026-05-05 20:13 | 46.84751 | 20.71681 | 27102 ft | 375 kts | 312° |
| 2026-05-05 20:14 | 46.86518 | 20.68907 | 26619 ft | 373 kts | 312° |
| 2026-05-05 20:14 | 46.88278 | 20.66136 | 26138 ft | 371 kts | 311° |
| 2026-05-05 20:14 | 46.90005 | 20.63412 | 25670 ft | 369 kts | 311° |
| 2026-05-05 20:14 | 46.91747 | 20.60665 | 25211 ft | 367 kts | 311° |
| 2026-05-05 20:15 | 46.93479 | 20.57936 | 24749 ft | 365 kts | 311° |
| 2026-05-05 20:15 | 46.95206 | 20.55216 | 24281 ft | 364 kts | 311° |
| 2026-05-05 20:15 | 46.96920 | 20.52508 | 23854 ft | 362 kts | 311° |
| 2026-05-05 20:15 | 46.98625 | 20.49805 | 23405 ft | 360 kts | 311° |
| 2026-05-05 20:16 | 47.00319 | 20.47113 | 22877 ft | 359 kts | 311° |
| 2026-05-05 20:16 | 47.02006 | 20.44433 | 22378 ft | 357 kts | 311° |
| 2026-05-05 20:16 | 47.03686 | 20.41764 | 21885 ft | 357 kts | 311° |
| 2026-05-05 20:16 | 47.05343 | 20.39131 | 21339 ft | 356 kts | 311° |
| 2026-05-05 20:17 | 47.07022 | 20.36459 | 20753 ft | 356 kts | 311° |
| 2026-05-05 20:17 | 47.08700 | 20.33788 | 20178 ft | 356 kts | 311° |
| 2026-05-05 20:17 | 47.10377 | 20.31116 | 19617 ft | 356 kts | 311° |
| 2026-05-05 20:17 | 47.12057 | 20.28438 | 19066 ft | 357 kts | 310° |
| 2026-05-05 20:18 | 47.13738 | 20.25753 | 18518 ft | 357 kts | 310° |
| 2026-05-05 20:18 | 47.15418 | 20.23065 | 17951 ft | 357 kts | 310° |
| 2026-05-05 20:18 | 47.17083 | 20.20419 | 17362 ft | 358 kts | 310° |
| 2026-05-05 20:18 | 47.18782 | 20.17744 | 16747 ft | 358 kts | 310° |
| 2026-05-05 20:19 | 47.20489 | 20.15069 | 16158 ft | 359 kts | 310° |
| 2026-05-05 20:19 | 47.22196 | 20.12394 | 15589 ft | 359 kts | 310° |
| 2026-05-05 20:19 | 47.23904 | 20.09709 | 15013 ft | 359 kts | 310° |
| 2026-05-05 20:19 | 47.25575 | 20.07078 | 14444 ft | 344 kts | 309° |
| 2026-05-05 20:20 | 47.27183 | 20.04550 | 13903 ft | 335 kts | 309° |
| 2026-05-05 20:20 | 47.28745 | 20.02089 | 13311 ft | 322 kts | 309° |
| 2026-05-05 20:20 | 47.30248 | 19.99722 | 12709 ft | 311 kts | 308° |
| 2026-05-05 20:20 | 47.31682 | 19.97461 | 12135 ft | 301 kts | 308° |
| 2026-05-05 20:21 | 47.33089 | 19.95233 | 11561 ft | 293 kts | 308° |
| 2026-05-05 20:21 | 47.34459 | 19.93060 | 10992 ft | 286 kts | 308° |
| 2026-05-05 20:21 | 47.35800 | 19.90925 | 10431 ft | 282 kts | 307° |
| 2026-05-05 20:21 | 47.37014 | 19.88712 | 9886 ft | 274 kts | 297° |
| 2026-05-05 20:22 | 47.37887 | 19.86274 | 9296 ft | 265 kts | 286° |
| 2026-05-05 20:22 | 47.38418 | 19.83739 | 8701 ft | 253 kts | 276° |
| 2026-05-05 20:22 | 47.38629 | 19.81210 | 8112 ft | 244 kts | 266° |
| 2026-05-05 20:22 | 47.38639 | 19.78730 | 7540 ft | 241 kts | 266° |
| 2026-05-05 20:23 | 47.38597 | 19.76281 | 6981 ft | 236 kts | 256° |
| 2026-05-05 20:23 | 47.38036 | 19.74111 | 6427 ft | 228 kts | 231° |
| 2026-05-05 20:23 | 47.36936 | 19.72455 | 5866 ft | 227 kts | 219° |
| 2026-05-05 20:23 | 47.35720 | 19.70981 | 5282 ft | 225 kts | 217° |
| 2026-05-05 20:24 | 47.34495 | 19.69565 | 4712 ft | 222 kts | 217° |
| 2026-05-05 20:24 | 47.33273 | 19.68189 | 4134 ft | 220 kts | 217° |
| 2026-05-05 20:24 | 47.32050 | 19.66850 | 3550 ft | 218 kts | 217° |
| 2026-05-05 20:24 | 47.30827 | 19.65552 | 3108 ft | 212 kts | 217° |
| 2026-05-05 20:25 | 47.29655 | 19.64342 | 3033 ft | 202 kts | 217° |
| 2026-05-05 20:25 | 47.28509 | 19.63176 | 3170 ft | 202 kts | 217° |
| 2026-05-05 20:25 | 47.27386 | 19.62023 | 3090 ft | 197 kts | 217° |
| 2026-05-05 20:25 | 47.26270 | 19.60869 | 3045 ft | 196 kts | 221° |
| 2026-05-05 20:26 | 47.25505 | 19.59272 | 3033 ft | 194 kts | 256° |
| 2026-05-05 20:26 | 47.25606 | 19.57323 | 3119 ft | 193 kts | 296° |
| 2026-05-05 20:26 | 47.26415 | 19.55659 | 3318 ft | 208 kts | 307° |
| 2026-05-05 20:26 | 47.27318 | 19.54011 | 3222 ft | 205 kts | 302° |
| 2026-05-05 20:27 | 47.28157 | 19.52316 | 3134 ft | 204 kts | 301° |
| 2026-05-05 20:27 | 47.29075 | 19.50747 | 3066 ft | 205 kts | 306° |
| 2026-05-05 20:27 | 47.29998 | 19.49194 | 3032 ft | 196 kts | 307° |
| 2026-05-05 20:27 | 47.30900 | 19.47717 | 3019 ft | 192 kts | 307° |
| 2026-05-05 20:28 | 47.31795 | 19.46273 | 2902 ft | 190 kts | 307° |
| 2026-05-05 20:28 | 47.32685 | 19.44844 | 2779 ft | 189 kts | 307° |
| 2026-05-05 20:28 | 47.33568 | 19.43427 | 2663 ft | 187 kts | 307° |
| 2026-05-05 20:28 | 47.34445 | 19.42020 | 2615 ft | 186 kts | 307° |
| 2026-05-05 20:29 | 47.35322 | 19.40611 | 2443 ft | 185 kts | 306° |
| 2026-05-05 20:29 | 47.36188 | 19.39220 | 2231 ft | 183 kts | 306° |
| 2026-05-05 20:29 | 47.37045 | 19.37839 | 2030 ft | 182 kts | 306° |
| 2026-05-05 20:29 | 47.37902 | 19.36493 | 2006 ft | 184 kts | 308° |
| 2026-05-05 20:30 | 47.38769 | 19.35118 | 1739 ft | 179 kts | 306° |
| 2026-05-05 20:30 | 47.39549 | 19.33809 | 1451 ft | 161 kts | 305° |
| 2026-05-05 20:30 | 47.40283 | 19.32656 | 1203 ft | 150 kts | 312° |
| 2026-05-05 20:30 | 47.40971 | 19.31535 | 887 ft | 146 kts | 308° |
| 2026-05-05 20:31 | 47.41647 | 19.30420 | 648 ft | 145 kts | 309° |
| 2026-05-05 20:31 | 47.42328 | 19.29332 | 502 ft | 144 kts | 309° |
| 2026-05-05 20:31 | 47.42964 | 19.28274 | 457 ft | 124 kts | 309° |
| 2026-05-05 20:31 | 47.43343 | 19.27682 | 466 ft | 46 kts | 312° |
| 2026-05-05 20:32 | 47.43571 | 19.27304 | 473 ft | 52 kts | 310° |
| 2026-05-05 20:32 | 47.43727 | 19.26985 | 473 ft | 36 kts | 292° |
| 2026-05-05 20:32 | 47.43783 | 19.26659 | 460 ft | 25 kts | 281° |
| 2026-05-05 20:32 | 47.43787 | 19.26632 | 460 ft | 0 kts | 281° |
| 2026-05-05 20:33 | 47.43790 | 19.26610 | 457 ft | 7 kts | 281° |
| 2026-05-05 20:34 | 47.43794 | 19.26495 | 458 ft | 13 kts | 253° |
| 2026-05-05 20:34 | 47.43736 | 19.26406 | 457 ft | 12 kts | 225° |
| 2026-05-05 20:34 | 47.43679 | 19.26321 | 457 ft | 12 kts | 224° |
| 2026-05-05 20:34 | 47.43621 | 19.26242 | 457 ft | 11 kts | 222° |
| 2026-05-05 20:35 | 47.43563 | 19.26165 | 457 ft | 11 kts | 222° |
| 2026-05-05 20:35 | 47.43545 | 19.26138 | 457 ft | 0 kts | 232° |
| 2026-05-05 20:35 | 47.43548 | 19.26102 | 457 ft | 7 kts | 297° |
| 2026-05-05 20:36 | 47.43571 | 19.26063 | 456 ft | 0 kts | 310° |
| 2026-05-05 20:36 | 47.43572 | 19.26060 | 456 ft | 0 kts | 310° |